• Join FlightAware (Why Join?)
  • Login
  • US Flag 
03:33PM EDT


 

Airport Tracker/Info


-or-


 

Live Flight TrackerFlight Track Log ✈ N6UB ✈ 24-Mar-2014 ✈ KSTS - KAPA

Flight Track Log - Related Links

Times and Time Zones

All times are in EDT time to prevent confusion due to time zone crossing. See the N6UB flight status page for this flight to view local times or setup timezone preferences in your user account.

Time Position Orientation Groundspeed Altitude Reporting Facility
EDT Latitude Longitude Course Direction KTS MPH feet Rate Location/Type
06:36PM 38.5167 -122.1832 90° East  Level FlightAware Approximate
06:36PM 38.4825 -122.7944 90° East 155 178 1,100  Level Oakland Center
06:37PM 38.5171 -122.0586 86° East  Level FlightAware Approximate
06:37PM 38.4297 -122.7639 156° South 209 241 3,200  Level Oakland Center
06:38PM 38.5237 -121.9343 86° East  Level FlightAware Approximate
06:38PM 38.4019 -122.6928 116° Southeast 232 267 5,800  Level Oakland Center
06:39PM 38.5302 -121.8099 86° East  Level FlightAware Approximate
06:40PM 38.5334 -121.6854 90° East  Level FlightAware Approximate
06:40PM 38.4042 -122.6069 88° East 242 278 8,300  Level Oakland Center
06:41PM 38.5334 -121.5608 90° East  Level FlightAware Approximate
06:41PM 38.4103 -122.5158 85° East 253 291 10,100  Level Oakland Center
06:42PM 38.5333 -121.4361 90° East  Level FlightAware Approximate
06:42PM 38.4122 -122.4181 89° East 268 308 12,200  Level Oakland Center
06:43PM 38.4192 -122.3239 85° East 268 308 14,500 2,040 Climbing Oakland Center
06:44PM 38.4239 -122.2303 86° East 265 305 16,500 1,800 Climbing Oakland Center
06:45PM 38.4286 -122.1367 86° East 265 305 18,200 1,560 Climbing Oakland Center
06:46PM 38.4336 -122.0394 86° East 273 314 19,700 1,440 Climbing Oakland Center
06:47PM 38.4383 -121.9386 87° East 282 325 21,200 1,680 Climbing Oakland Center
06:48PM 38.4444 -121.8158 86° East 288 331 23,200 1,740 Climbing Oakland Center
06:49PM 38.4497 -121.7111 86° East 288 331 24,800 1,440 Climbing Oakland Center
06:50PM 38.4539 -121.6103 87° East 286 329 26,200 1,320 Climbing Oakland Center
06:51PM 38.4586 -121.5114 86° East 282 325 27,600 1,140 Climbing Oakland Center
06:52PM 38.4628 -121.4136 87° East 282 325 28,600 960 Climbing Oakland Center
06:53PM 38.4661 -121.3100 88° East 290 334 29,600 960 Climbing Oakland Center
06:54PM 38.4711 -121.2047 86° East 297 342 30,600 1,020 Climbing Oakland Center
06:55PM 38.4761 -121.0842 87° East 296 341 31,700 1,020 Climbing Oakland Center
06:56PM 38.4803 -120.9811 87° East 294 338 32,700 840 Climbing Oakland Center
06:57PM 38.4839 -120.8775 87° East 293 337 33,500 780 Climbing Oakland Center
06:58PM 38.4881 -120.7742 87° East 293 337 34,300 660 Climbing Oakland Center
06:59PM 38.4922 -120.6700 87° East 294 338 34,900 300 Climbing Oakland Center
07:00PM 38.4964 -120.5622 87° East 301 346 35,000  Climbing Oakland Center
07:01PM 38.4989 -120.4461 88° East 322 371 35,000  Level Oakland Center
07:02PM 38.5022 -120.3269 88° East 335 386 35,000  Level Oakland Center
07:03PM 38.5083 -120.2042 86° East 345 397 35,000  Level Oakland Center
07:04PM 38.5111 -120.0553 89° East 351 404 35,000  Level Oakland Center
07:05PM 38.5133 -119.9308 89° East 350 403 35,000  Level Oakland Center
07:06PM 38.5167 -119.8056 88° East 352 405 35,000  Level Oakland Center
07:07PM 38.5269 -119.6750 84° East 353 406 35,000  Level Oakland Center
07:08PM 38.5294 -119.5497 88° East 354 407 35,000  Level Oakland Center
07:09PM 38.5314 -119.4200 89° East 356 410 35,000  Level Oakland Center
07:10PM 38.5325 -119.2944 89° East 354 407 35,000  Level Oakland Center
07:11PM 38.5367 -119.1686 88° East 354 407 35,000  Level Oakland Center
07:12PM 38.5439 -119.0417 86° East 358 412 35,000  Level Oakland Center
07:13PM 38.5456 -118.9153 89° East 355 409 35,000  Level Oakland Center
07:14PM 38.5486 -118.7894 88° East 354 407 35,000  Level Oakland Center
07:15PM 38.5500 -118.6625 89° East 356 410 35,000  Level Oakland Center
07:16PM 38.5550 -118.5375 87° East 354 407 35,000  Level Oakland Center
07:17PM 38.5578 -118.4103 88° East 357 411 35,000  Level Oakland Center
07:18PM 38.5594 -118.2844 89° East 357 411 35,000  Level Oakland Center
07:19PM 38.5625 -118.1331 88° East 355 409 35,000  Level Oakland Center
07:20PM 38.5650 -118.0069 89° East 354 407 35,000  Level Oakland Center
07:21PM 38.5825 -117.8844 80° East 350 403 35,000  Level Oakland Center
07:22PM 38.6006 -117.7592 80° East 354 407 35,000  Level Oakland Center
07:23PM 38.6169 -117.6361 80° East 353 406 35,000  Level Oakland Center
07:24PM 38.6300 -117.5378 80° East 352 405 35,000  Level Salt Lake Center
07:25PM 38.6458 -117.4133 81° East 353 406 35,000  Level Salt Lake Center
07:26PM 38.6661 -117.2653 80° East 352 405 35,000  Level Salt Lake Center
07:27PM 38.6814 -117.1411 81° East 352 405 35,000  Level Salt Lake Center
07:28PM 38.6972 -117.0167 81° East 352 405 35,000  Level Salt Lake Center
07:29PM 38.7122 -116.8919 81° East 352 405 35,000  Level Salt Lake Center
07:31PM 38.7281 -116.7669 81° East 353 406 35,000  Level Salt Lake Center
07:32PM 38.7436 -116.6419 81° East 353 406 35,000  Level Salt Lake Center
07:33PM 38.7581 -116.5186 81° East 353 406 35,000  Level Salt Lake Center
07:34PM 38.7731 -116.3919 81° East 354 407 35,000  Level Salt Lake Center
07:35PM 38.7917 -116.2431 81° East 355 409 35,000  Level Oakland Center
07:36PM 38.8064 -116.1183 81° East 354 407 35,000  Level Salt Lake Center
07:37PM 38.8211 -115.9928 81° East 354 407 35,000  Level Salt Lake Center
07:38PM 38.8350 -115.8692 82° East 353 406 35,000  Level Salt Lake Center
07:39PM 38.8486 -115.7433 82° East 353 406 35,000  Level Salt Lake Center
07:40PM 38.8628 -115.6186 82° East 353 406 35,000  Level Salt Lake Center
07:41PM 38.8769 -115.4931 82° East 354 407 35,000  Level Salt Lake Center
07:42PM 38.8919 -115.3647 81° East 353 406 35,000  Level Salt Lake Center
07:43PM 38.9061 -115.2375 82° East 356 410 35,000  Level Salt Lake Center
07:44PM 38.9203 -115.1136 82° East 353 406 35,000  Level Salt Lake Center
07:45PM 38.9364 -114.9633 82° East 353 406 35,000  Level Salt Lake Center
07:46PM 38.9500 -114.8378 82° East 353 406 35,000  Level Salt Lake Center
07:47PM 38.9631 -114.7125 82° East 354 407 35,000  Level Salt Lake Center
07:48PM 38.9767 -114.5867 82° East 354 407 35,000  Level Salt Lake Center
07:49PM 38.9892 -114.4619 83° East 354 407 35,000  Level Salt Lake Center
07:50PM 39.0019 -114.3372 82° East 354 407 35,000  Level Salt Lake Center
07:51PM 39.0144 -114.2111 83° East 354 407 35,000  Level Salt Lake Center
07:52PM 39.0272 -114.0867 82° East 354 407 35,000  Level Salt Lake Center
07:53PM 39.0419 -113.9361 83° East 354 407 35,000  Level Salt Lake Center
07:54PM 39.0542 -113.8094 83° East 355 409 35,000  Level Salt Lake Center
07:55PM 39.0667 -113.6828 83° East 355 409 35,000  Level Salt Lake Center
07:56PM 39.0786 -113.5556 83° East 356 410 35,000  Level Salt Lake Center
07:57PM 39.0903 -113.4292 83° East 356 410 35,000  Level Salt Lake Center
07:58PM 39.1025 -113.3033 83° East 356 410 35,000  Level Salt Lake Center
07:59PM 39.1139 -113.1761 83° East 356 410 35,000  Level Salt Lake Center
08:00PM 39.1244 -113.0525 84° East 355 409 35,000  Level Salt Lake Center
08:01PM 39.1383 -112.9022 83° East 353 406 35,000  Level Salt Lake Center
08:02PM 39.1494 -112.7744 84° East 354 407 35,000  Level Salt Lake Center
08:03PM 39.1603 -112.6481 84° East 354 407 35,000  Level Salt Lake Center
08:04PM 39.1717 -112.5197 83° East 356 410 35,000  Level Salt Lake Center
08:05PM 39.1831 -112.3919 83° East 357 411 35,000  Level Salt Lake Center
08:06PM 39.1936 -112.2633 84° East 358 412 35,000  Level Salt Lake Center
08:08PM 39.2042 -112.1347 84° East 360 414 35,000  Level Salt Lake Center
08:09PM 39.2156 -112.0058 83° East 360 414 35,000  Level Salt Lake Center
08:10PM 39.2269 -111.8503 85° East 361 415 35,000  Level Salt Lake Center
08:11PM 39.2375 -111.7183 84° East 362 417 35,000  Level Salt Lake Center
08:12PM 39.2492 -111.5819 84° East 364 419 35,000  Level Salt Lake Center
08:13PM 39.2586 -111.4536 85° East 362 417 35,000  Level Salt Lake Center
08:14PM 39.2686 -111.3228 84° East 364 419 35,000  Level Salt Lake Center
08:15PM 39.2778 -111.1983 85° East 366 421 35,000  Level Salt Lake Center
08:16PM 39.2883 -111.0522 85° East 367 422 35,000  Level Salt Lake Center
08:17PM 39.2975 -110.9272 85° East 367 422 35,000  Level Salt Lake Center
08:18PM 39.3083 -110.7808 84° East 367 422 35,000  Level Salt Lake Center
08:19PM 39.3161 -110.6539 85° East 367 422 35,000  Level Salt Lake Center
08:20PM 39.3272 -110.5075 84° East 368 423 35,000  Level Salt Lake Center
08:21PM 39.3344 -110.3806 86° East 368 423 35,000  Level Salt Lake Center
08:22PM 39.3425 -110.2533 85° East 369 425 35,000  Level Salt Lake Center
08:23PM 39.3494 -110.1047 86° East 370 426 35,000  Level Salt Lake Center
08:24PM 39.3328 -109.9753 99° East 379 436 35,000  Level Salt Lake Center
08:25PM 39.3136 -109.8244 99° East 380 437 35,000  Level Salt Lake Center
08:26PM 39.2972 -109.6956 99° East 380 437 35,000  Level Salt Lake Center
08:27PM 39.2775 -109.5461 100° East 380 437 35,000  Level Salt Lake Center
08:28PM 39.2606 -109.4164 100° East 381 438 35,000  Level Salt Lake Center
08:29PM 39.2411 -109.2672 100° East 381 438 35,000  Level Salt Lake Center
08:30PM 39.2239 -109.1392 100° East 381 438 35,000  Level Salt Lake Center
08:31PM 39.2042 -108.9872 99° East 383 441 35,000  Level Salt Lake Center
08:32PM 39.1858 -108.8572 100° East 384 442 35,000  Level Salt Lake Center
08:33PM 39.1656 -108.7044 100° East 390 449 35,000  Level Salt Lake Center
08:34PM 39.1472 -108.5722 100° East 390 449 35,000  Level Salt Lake Center
08:35PM 39.1292 -108.4414 100° East 390 449 35,000  Level Salt Lake Center
08:37PM 39.1050 -108.2639 100° East 391 450 35,000  Level Denver Center
08:38PM 39.0825 -108.1094 101° East 391 450 35,000  Level Denver Center
08:39PM 39.0642 -107.9783 100° East 392 451 35,000  Level Denver Center
08:40PM 39.0417 -107.8236 101° East 392 451 35,000  Level Denver Center
08:41PM 39.0278 -107.6914 98° East 391 450 35,000 -600 Level Denver Center
08:42PM 39.0492 -107.5375 80° East 389 448 33,800 -1,080 Descending Denver Center
08:43PM 39.0631 -107.4000 83° East 402 463 32,800 -960 Descending Denver Center
08:44PM 39.0786 -107.2381 83° East 405 466 31,900 -960 Descending Denver Center
08:45PM 39.0936 -107.1039 82° East 402 463 30,900 -1,620 Descending Denver Center
08:46PM 39.1061 -106.9647 83° East 405 466 28,600 -1,740 Descending Denver Center
08:47PM 39.1239 -106.8039 82° East 407 468 27,400 -780 Descending Denver Center
08:48PM 39.1358 -106.6753 83° East 387 445 27,000 -240 Descending Denver Center
08:49PM 39.1447 -106.5706 84° East 376 433 27,000  Level Denver Center
08:50PM 39.1597 -106.4050 83° East 368 423 27,000 -60 Level Denver Center
08:51PM 39.1742 -106.2542 83° East 375 432 26,900 -720 Descending Denver Center
08:52PM 39.1858 -106.1350 83° East 377 434 25,600 -1,500 Descending Denver Center
08:53PM 39.1989 -105.9736 84° East 379 436 23,900 -1,380 Descending Denver Center
08:54PM 39.2117 -105.8422 83° East 375 432 22,800 -1,260 Descending Denver Center
08:55PM 39.2239 -105.7108 83° East 372 428 21,400 -1,260 Descending Denver Center
08:56PM 39.2344 -105.5842 84° East 361 415 20,300 -1,620 Descending Denver Center
08:57PM 39.2475 -105.4544 83° East 351 404 18,100 -1,800 Descending Denver Center
08:58PM 39.2589 -105.3306 83° East 326 375 16,700 -1,500 Descending Denver Center
08:59PM 39.3017 -105.2536 54° Northeast 260 299 15,100 -1,740 Descending Denver Center
09:00PM 39.3442 -105.1917 48° Northeast 235 270 13,200 -1,800 Descending Denver Center
09:01PM 39.3864 -105.1228 52° Northeast 230 265 11,500 -1,500 Descending Denver Center
09:02PM 39.4253 -105.0622 50° Northeast 223 257 10,200 -1,320 Descending Denver Center
09:03PM 39.4639 -105.0044 49° Northeast 201 231 8,800 -1,200 Descending Denver Center
09:04PM 39.5036 -104.9572 43° Northeast 196 226 7,800 -840 Descending Denver Center
09:05PM 39.5428 -104.9147 40° Northeast 188 216 7,200 -300 Descending Denver Center
09:06PM 39.5931 -104.8844 25° Northeast 187 215 7,200 -540 Level Denver Center
09:07PM 39.5967 -104.8528 82° East 167 192 6,100 -1,080 Descending Denver Center
09:09PM 39.5667 -104.8333 237° Southwest  Level FlightAware Approximate
09:16PM 39.5701 -104.8493 237° Southwest  Level Estimated
09:17PM 39.5701 -104.8493 65° Northeast  Level Estimated
09:18PM 39.5701 -104.8493 49° Northeast  Level Estimated